Terminal Aerodrome Forecast
Issued by NWS

Home | Current Version | Previous Version | Text Only | Print | Product List | Glossary Off
Versions: 1 2 3 4 5 6 7 8 9 10 11 12 13 14 15

000
FTUS43 KIWX 011700
TAFSBN
TAF
KSBN 011720Z 0118/0218 25006KT P6SM VCTS BKN050CB
      TEMPO 0118/0119 5SM TSRA BKN030CB
     FM012200 31005KT P6SM BKN050
     FM020200 VRB02KT P6SM SCT050
     FM021000 02004KT 4SM BR SCT040
     FM021500 35007KT P6SM SCT040=

USA.gov is the U.S. government's official web portal to all federal, state and local government web resources and services.